Logo AVAMET
Benvolgut visitant, si us plau, ingressa Recuperar contrasenya

Vinalesa

Dades diàries. Acumulats / Últims 30 dies disponibles

Data Temperatura (°C) Humitat rel. (%) Pressió rel. (hPa) Vent (km/h) Precipitació
Mínima Mitjana Màxima Amplitud
tèrmica
Mitjana Màxima Mitjana Mínima Mitjana Màxima Predom. Mitjana Ràfega
màxima
Total
(mm)
Índex-n
Mínima Mitjana Màxima Mínima Mitjana Màxima n
0 a 1
P0 max
mm 5'
Dades mensuals acumulades fins l'últim dia disponible
12/2018 5,5 8,2 11,6 13,1 15,3 19,7 24,2 18,7 27 70 95 1.002 1.021 1.030   3,3 46,7 13,6
Dades anuals acumulades fins l'últim dia disponible
2018 1,3 13,8 24,8 18,1 8,7 22,6 36,1 34,8 25 73 97 997 1.016 1.030   4,8 67,6 667,4
Últims 30 dies disponibles
16-12-2018 11,6     15,2     19,2 7,6 54 62 74 1.016 1.019 1.023 ENE 11,3 46,7 0,0
15-12-2018 6,5     13,2     19,3 12,8 46 61 75 1.020 1.021 1.024 ENE 6,4 45,1 0,0
14-12-2018 10,3     14,1     17,3 7,0 41 49 60 1.007 1.015 1.022 SE 10,3 46,7 0,0
13-12-2018 9,2     12,7     15,3 6,1 55 76 93 1.002 1.005 1.009 ENE 9,3 40,2 13,2 0,22 0,90
12-12-2018 7,0     12,1     20,4 13,4 44 68 91 1.016 1.019 1.021 NE 1,3 12,9 0,0
11-12-2018 5,9     10,8     17,6 11,7 55 81 92 1.019 1.022 1.026 ENE 0,8 11,3 0,0
10-12-2018 8,0     12,6     17,7 9,7 36 66 90 1.026 1.027 1.030 ENE 1,6 17,7 0,0
09-12-2018 7,7     15,1     24,2 16,5 27 60 85 1.024 1.026 1.027 NE 2,4 17,7 0,0
08-12-2018 7,7     12,4     19,2 11,5 47 75 91 1.023 1.026 1.028 ENE 1,1 14,5 0,0
07-12-2018 8,2     12,2     19,6 11,4 51 80 91 1.022 1.025 1.027 ENE 1,9 14,5 0,0
06-12-2018 8,5     13,2     20,3 11,8 52 78 95 1.023 1.025 1.027 SE 0,8 11,3 0,2
05-12-2018 8,4     12,9     19,7 11,3 59 85 94 1.022 1.024 1.025 SE 0,6 9,7 0,2
04-12-2018 10,0     14,5     23,8 13,8 49 77 90 1.021 1.022 1.024 W 0,5 12,9 0,0
03-12-2018 8,8     13,9     20,6 11,8 49 72 91 1.019 1.020 1.022 ENE 1,0 11,3 0,0
02-12-2018 7,9     12,8     21,5 13,6 41 68 82 1.019 1.020 1.022 ENE 1,9 17,7 0,0
01-12-2018 5,5     11,3     18,9 13,4 35 63 82 1.020 1.021 1.022 ENE 1,6 14,5 0,0
30-11-2018 8,6     13,8     18,7 10,1 37 54 81 1.015 1.017 1.021 SE 4,8 29,0 0,0
29-11-2018 5,4     11,1     18,3 12,9 41 67 81 1.017 1.019 1.022 E 0,8 9,7 0,0
28-11-2018 6,7     12,3     19,6 12,9 32 62 81 1.020 1.021 1.023 ENE 1,9 14,5 0,0
27-11-2018 8,8     13,8     21,2 12,4 32 55 72 1.018 1.020 1.022 ENE 4,0 24,1 0,0
26-11-2018 10,6     14,9     17,8 7,2 36 56 85 1.003 1.009 1.018 ENE 10,6 57,9 2,4
25-11-2018 8,3     14,7     20,3 12,0 55 69 80 1.007 1.009 1.014 ENE 8,5 49,9 0,0
24-11-2018 6,1     11,3     18,7 12,6 37 65 85 1.014 1.015 1.017 ENE 2,9 24,1 0,0
23-11-2018 8,8     12,5     17,4 8,6 64 82 93 1.012 1.014 1.017 ENE 2,3 19,3 3,0
22-11-2018 9,7     12,8     16,3 6,6 63 77 90 1.015 1.016 1.018 ENE 1,4 14,5 0,0
21-11-2018 11,8     14,1     18,7 6,9 50 70 78 1.007 1.011 1.016 NE 5,3 25,7 0,0
20-11-2018 9,8     13,3     18,9 9,1 54 81 95 1.000 1.002 1.006 NE 5,6 35,4 2,4
19-11-2018 11,5     13,3     14,5 3,0 78 86 93 999 1.001 1.005 S 5,0 40,2 7,8
18-11-2018 13,0     14,2     15,7 2,7 78 89 94 1.005 1.008 1.012 WSW 4,0 25,7 9,2
17-11-2018 13,3     15,3     17,6 4,3 78 89 94 1.013 1.016 1.019 WSW 1,9 16,1 3,8
Últims 13 mesos disponibles
11/2018 5,4 10,5 15,8 14,1 14,5 18,5 24,3 18,9 54 74 93 1.001 1.014 1.023 ENE 4,4 57,9 139,0
10/2018 6,8 14,2 17,9 18,1 13,7 22,6 27,8 21,0 43 72 92 999 1.014 1.025 W 3,6 45,1 218,4
09/2018 15,4 20,0 22,9 23,8 23,7 27,6 30,8 15,4 57 77 86 1.012 1.019 1.028 W 3,4 37,0 57,8
08/2018 19,9 22,7 24,8 26,6 26,8 30,2 35,9 16,0 52 70 79 1.012 1.016 1.021 W 4,0 48,3 11,0
07/2018 19,8 21,9 23,9 26,1 27,4 29,9 36,1 16,3 W 4,6 45,1 0,0
06/2018 14,2 18,6 22,4 23,0 23,1 26,8 30,8 16,6 W 4,9 38,6 66,8
05/2018 7,9 14,0 17,4 18,4 17,0 23,0 27,1 19,2 W 4,4 43,5 15,6
04/2018 6,8 11,3 15,6 15,8 14,2 20,4 25,9 19,1 ENE 6,7 61,2 26,0
03/2018 5,0 9,3 13,9 13,8 14,3 19,1 29,2 24,2 ENE 8,9 67,6 19,2
02/2018 1,3 5,5 10,5 9,8 8,7 14,6 22,9 21,6 SE 4,0 41,8 54,8
01/2018 2,6 7,6 13,3 12,1 13,2 17,6 25,8 23,2 ENE 5,1 48,3 45,2
12/2017 1,9 6,4 12,3 11,3 11,2 16,6 22,9 21,0 4,9 62,8 0,8
11/2017 4,7 9,2 14,8 14,0 12,2 19,2 25,3 20,6 3,2 48,3 7,8
Tots els anys disponibles
2017 0,6 13,6 29,2 17,9 8,2 22,4 36,4 35,8 4,3 62,8 317,4
Temperatura (°C)
Humitat relativa (%)
Velocitat del vent i ràfega màxima (km/h)
Direcció del vent (°)
Pressió (hPa)
Precipitació (mm)
Nota sobre les dades: s'avisa a l'usuari de la provisionalitat i no oficialitat d'aquestes dades
Logo AVAMET blanc
Web allotjada a Sollutia
Llicència de Creative CommonsLa web d'AVAMET i els seus continguts estan subjectes a una llicència de
Reconeixement - No Comercial - Compartir igual
Properes estacions Agres - La Valleta (Soci), Finestrat (Ajuntament Soci), Eslida (Ajuntament Soci), Sant Joanet (Soci)      - - - - -      Últimes estacions: Alpuente (Aj. Soci), Confrides - Pensión el Pirineo (Soci), Bigastro (MeteOrihuela), Culla - Observatori astronòmic (Aj. Soci), Millares - Albergue Rural (Soci), Orpesa (Inforatge), Callosa de Segura (MeteOrihuela), Carcaixent - Muntanyeta (Inforatge), Gandia - Roís de Corella (Soci), Sant Joan de Moró (Aj. Soci) - - -